createdAt,value
2022-11-19T00:01:45.854Z,9.95
2022-11-19T00:05:27.529Z,10.07
2022-11-19T00:09:14.212Z,6.50
2022-11-19T00:12:56.140Z,9.13
2022-11-19T00:16:37.912Z,6.22
2022-11-19T00:20:19.637Z,5.00
2022-11-19T00:24:03.701Z,5.35
2022-11-19T00:27:45.376Z,7.68
2022-11-19T00:31:27.274Z,7.28
2022-11-19T00:35:09.424Z,6.32
2022-11-19T00:38:51.145Z,4.40
2022-11-19T00:42:32.961Z,6.07
2022-11-19T00:46:19.393Z,8.90
2022-11-19T00:50:01.051Z,6.35
2022-11-19T00:53:43.064Z,5.72
2022-11-19T00:57:24.743Z,5.68
2022-11-19T01:01:06.862Z,13.00
2022-11-19T01:04:48.569Z,7.65
2022-11-19T01:08:30.324Z,8.37
2022-11-19T01:12:13.215Z,8.45
2022-11-19T01:15:54.878Z,7.23
2022-11-19T01:19:36.550Z,6.40
2022-11-19T01:23:20.605Z,8.45
2022-11-19T01:27:02.314Z,7.45
2022-11-19T01:30:44.188Z,8.98
2022-11-19T01:34:28.032Z,4.78
2022-11-19T01:38:09.724Z,5.80
2022-11-19T01:41:51.658Z,5.32
2022-11-19T01:45:38.278Z,6.00
2022-11-19T01:49:20.257Z,9.30
2022-11-19T01:53:02.549Z,7.40
2022-11-19T01:56:44.233Z,6.55
2022-11-19T02:00:26.373Z,6.50
2022-11-19T02:04:08.276Z,7.43
2022-11-19T02:07:53.837Z,8.35
2022-11-19T02:11:38.445Z,10.63
2022-11-19T02:15:25.956Z,8.23
2022-11-19T02:19:33.720Z,11.85
2022-11-19T02:23:38.654Z,7.25
2022-11-19T02:27:38.020Z,10.23
2022-11-19T02:31:29.093Z,7.18
2022-11-19T02:35:23.094Z,4.75
2022-11-19T02:43:09.350Z,7.10
2022-11-19T02:46:52.382Z,10.55
2022-11-19T02:50:39.868Z,10.68
2022-11-19T02:54:22.935Z,7.63
2022-11-19T02:58:37.901Z,11.00
2022-11-19T03:02:47.123Z,6.75
2022-11-19T03:06:28.808Z,10.85
2022-11-19T03:10:10.588Z,16.40
2022-11-19T03:14:19.140Z,10.55
2022-11-19T03:18:06.930Z,7.65
2022-11-19T03:21:55.030Z,8.23
2022-11-19T03:25:41.445Z,8.52
2022-11-19T03:29:23.313Z,8.27
2022-11-19T03:33:08.745Z,12.70
2022-11-19T03:36:51.420Z,7.30
2022-11-19T03:40:33.549Z,9.13
2022-11-19T03:44:29.996Z,9.82
2022-11-19T03:48:15.340Z,9.55
2022-11-19T03:52:00.883Z,12.85
2022-11-19T03:55:53.245Z,10.20
2022-11-19T03:59:35.303Z,9.38
2022-11-19T04:03:17.264Z,12.20
2022-11-19T04:06:58.959Z,11.57
2022-11-19T04:10:40.655Z,10.57
2022-11-19T04:14:22.582Z,10.85
2022-11-19T04:18:04.385Z,10.70
2022-11-19T04:21:46.195Z,10.60
2022-11-19T04:25:27.907Z,12.25
2022-11-19T04:29:09.626Z,11.63
2022-11-19T04:32:52.605Z,10.15
2022-11-19T04:36:34.426Z,8.30
2022-11-19T04:40:16.249Z,8.15
2022-11-19T04:44:00.209Z,6.35
2022-11-19T04:47:41.873Z,9.02
2022-11-19T04:51:23.835Z,8.73
2022-11-19T04:55:05.776Z,7.63
2022-11-19T04:58:47.465Z,6.90
2022-11-19T05:02:30.310Z,9.80
2022-11-19T05:06:12.013Z,10.25
2022-11-19T05:09:53.721Z,13.80
2022-11-19T05:13:35.515Z,8.38
2022-11-19T05:17:17.172Z,14.43
2022-11-19T05:20:58.912Z,9.50
2022-11-19T05:24:40.797Z,9.10
2022-11-19T05:28:37.560Z,12.00
2022-11-19T05:32:19.769Z,9.70
2022-11-19T05:36:01.888Z,8.00
2022-11-19T05:39:43.622Z,9.13
2022-11-19T05:43:25.476Z,7.88
2022-11-19T05:47:07.149Z,7.15
2022-11-19T05:50:48.800Z,9.55
2022-11-19T05:54:30.640Z,10.05
2022-11-19T05:58:13.747Z,15.45
2022-11-19T06:01:56.640Z,12.18
2022-11-19T06:05:40.621Z,11.27
2022-11-19T06:09:22.817Z,15.27
2022-11-19T06:13:04.821Z,14.85
2022-11-19T06:16:46.746Z,14.77
2022-11-19T06:20:28.425Z,16.60
2022-11-19T06:24:10.243Z,11.18
2022-11-19T06:27:51.917Z,10.25
2022-11-19T06:31:33.862Z,8.45
2022-11-19T06:35:15.641Z,9.73
2022-11-19T06:38:57.337Z,7.25
2022-11-19T06:42:39.285Z,10.65
2022-11-19T06:46:21.079Z,9.95
2022-11-19T06:50:02.837Z,13.60
2022-11-19T06:53:44.642Z,9.63
2022-11-19T06:57:26.446Z,11.77
2022-11-19T07:01:08.206Z,11.90
2022-11-19T07:04:49.885Z,10.95
2022-11-19T07:08:34.438Z,24.30
2022-11-19T07:12:17.326Z,15.48
2022-11-19T07:15:59.028Z,24.50
2022-11-19T07:19:40.715Z,25.45
2022-11-19T07:23:24.658Z,14.43
2022-11-19T07:27:06.401Z,15.65
2022-11-19T07:30:48.068Z,9.43
2022-11-19T07:34:29.987Z,11.35
2022-11-19T07:38:11.657Z,11.20
2022-11-19T07:42:12.258Z,10.82
2022-11-19T07:45:54.175Z,8.23
2022-11-19T07:49:35.876Z,11.38
2022-11-19T07:53:19.004Z,11.77
2022-11-19T07:57:00.786Z,9.80
2022-11-19T08:00:42.456Z,11.77
2022-11-19T08:04:27.642Z,9.70
2022-11-19T08:08:09.305Z,13.23
2022-11-19T08:11:51.046Z,17.17
2022-11-19T08:15:33.585Z,11.38
2022-11-19T08:19:15.892Z,12.07
2022-11-19T08:22:57.637Z,21.30
2022-11-19T08:26:39.448Z,18.70
2022-11-19T08:30:21.117Z,29.83
2022-11-19T08:34:03.607Z,19.13
2022-11-19T08:37:46.980Z,17.40
2022-11-19T08:41:47.194Z,17.90
2022-11-19T08:45:36.886Z,14.07
2022-11-19T08:49:18.718Z,13.63
2022-11-19T08:53:04.898Z,11.02
2022-11-19T08:56:46.614Z,12.15
2022-11-19T09:00:28.842Z,8.65
2022-11-19T09:04:10.634Z,8.98
2022-11-19T09:07:52.397Z,9.95
2022-11-19T09:11:39.763Z,11.38
2022-11-19T09:15:24.118Z,11.05
2022-11-19T09:19:05.843Z,12.48
2022-11-19T09:22:47.689Z,9.52
2022-11-19T09:26:29.365Z,9.60
2022-11-19T09:30:11.246Z,10.45
2022-11-19T09:33:53.586Z,8.48
2022-11-19T09:37:36.155Z,10.23
2022-11-19T09:41:36.667Z,8.02
2022-11-19T09:45:21.204Z,11.27
2022-11-19T09:49:10.518Z,19.05
2022-11-19T09:53:00.259Z,15.00
2022-11-19T09:56:43.044Z,8.20
2022-11-19T10:00:29.254Z,12.20
2022-11-19T10:04:11.039Z,7.28
2022-11-19T10:08:15.374Z,9.55
2022-11-19T10:12:17.372Z,16.27
2022-11-19T10:16:04.833Z,10.90
2022-11-19T10:19:49.577Z,5.30
2022-11-19T10:23:48.335Z,8.07
2022-11-19T10:27:32.605Z,11.93
2022-11-19T10:31:25.581Z,11.00
2022-11-19T10:35:15.314Z,8.02
2022-11-19T10:39:01.009Z,7.53
2022-11-19T10:42:48.573Z,9.50
2022-11-19T10:46:30.276Z,9.18
2022-11-19T10:50:30.266Z,8.77
2022-11-19T10:54:23.027Z,12.60
2022-11-19T10:58:10.888Z,6.75
2022-11-19T11:02:03.979Z,5.85
2022-11-19T11:05:57.782Z,11.83
2022-11-19T11:09:40.883Z,8.27
2022-11-19T11:13:55.224Z,7.47
2022-11-19T11:21:32.092Z,9.90
2022-11-19T11:25:27.272Z,12.82
2022-11-19T11:29:25.192Z,6.57
2022-11-19T11:33:25.045Z,5.05
2022-11-19T11:37:06.791Z,6.80
2022-11-19T11:41:44.007Z,10.45
2022-11-19T11:45:06.782Z,8.50
2022-11-19T11:48:48.706Z,6.28
2022-11-19T11:52:34.686Z,7.72
2022-11-19T11:56:16.362Z,9.77
2022-11-19T11:59:58.348Z,5.75
2022-11-19T12:03:55.737Z,6.90
2022-11-19T12:07:41.396Z,6.45
2022-11-19T12:11:54.154Z,7.53
2022-11-19T12:15:59.964Z,11.13
2022-11-19T12:20:08.282Z,11.80
2022-11-19T12:23:58.353Z,10.70
2022-11-19T12:27:50.018Z,11.00
2022-11-19T12:31:54.108Z,8.48
2022-11-19T12:39:46.797Z,8.60
2022-11-19T12:43:42.360Z,7.85
2022-11-19T12:47:45.078Z,25.70
2022-11-19T12:51:58.560Z,38.35
2022-11-19T12:55:54.590Z,17.67
2022-11-19T12:59:50.353Z,30.63
2022-11-19T13:04:01.760Z,9.57
2022-11-19T13:07:46.328Z,8.75
2022-11-19T13:11:42.054Z,7.60
2022-11-19T13:15:28.871Z,8.48
2022-11-19T13:19:16.422Z,12.25
2022-11-19T13:22:59.875Z,13.45
2022-11-19T13:26:41.572Z,9.40
2022-11-19T13:30:26.768Z,9.75
2022-11-19T13:34:35.618Z,6.85
2022-11-19T13:38:49.832Z,11.85
2022-11-19T13:43:17.286Z,7.38
2022-11-19T13:46:59.632Z,6.00
2022-11-19T13:50:43.340Z,7.88
2022-11-19T13:58:34.078Z,9.98
2022-11-19T14:02:43.896Z,10.35
2022-11-19T14:06:44.173Z,8.15
2022-11-19T14:10:41.195Z,10.70
2022-11-19T14:15:07.812Z,11.68
2022-11-19T14:19:10.016Z,10.82
2022-11-19T14:23:14.196Z,10.35
2022-11-19T14:31:13.150Z,10.63
2022-11-19T14:35:04.538Z,9.98
2022-11-19T14:38:54.551Z,7.82
2022-11-19T14:42:57.210Z,8.85
2022-11-19T14:46:40.662Z,10.10
2022-11-19T14:50:25.479Z,9.15
2022-11-19T14:54:17.562Z,10.52
2022-11-19T14:58:07.596Z,10.13
2022-11-19T15:02:17.633Z,6.43
2022-11-19T15:05:59.318Z,11.73
2022-11-19T15:10:11.800Z,16.27
2022-11-19T15:14:38.323Z,11.25
2022-11-19T15:18:41.537Z,7.78
2022-11-19T15:22:32.960Z,18.85
2022-11-19T15:26:26.548Z,17.58
2022-11-19T15:30:29.545Z,13.65
2022-11-19T15:34:56.358Z,11.27
2022-11-19T15:39:03.209Z,12.95
2022-11-19T15:43:06.274Z,12.88
2022-11-19T15:46:50.361Z,11.70
2022-11-19T15:50:32.040Z,12.02
2022-11-19T15:54:13.944Z,9.90
2022-11-19T15:57:56.606Z,10.07
2022-11-19T16:01:39.749Z,13.50
2022-11-19T16:05:23.685Z,12.77
2022-11-19T16:09:05.426Z,11.57
2022-11-19T16:13:16.537Z,12.60
2022-11-19T16:17:39.884Z,79.30
2022-11-19T16:21:27.161Z,51.50
2022-11-19T16:25:23.560Z,24.13
2022-11-19T16:29:05.284Z,12.55
2022-11-19T16:32:48.638Z,14.85
2022-11-19T16:36:32.009Z,14.98
2022-11-19T16:40:15.130Z,13.93
2022-11-19T16:43:56.922Z,12.65
2022-11-19T16:47:39.581Z,10.75
2022-11-19T16:51:29.444Z,13.25
2022-11-19T16:55:19.959Z,14.07
2022-11-19T16:59:02.836Z,18.48
2022-11-19T17:02:44.677Z,14.77
2022-11-19T17:06:26.380Z,14.38
2022-11-19T17:10:12.971Z,20.30
2022-11-19T17:13:54.749Z,14.65
2022-11-19T17:17:40.786Z,15.70
2022-11-19T17:21:27.644Z,17.60
2022-11-19T17:25:13.028Z,23.63
2022-11-19T17:29:03.981Z,26.48
2022-11-19T17:32:50.407Z,25.42
2022-11-19T17:36:32.107Z,25.20
2022-11-19T17:40:14.067Z,22.17
2022-11-19T17:44:14.259Z,21.63
2022-11-19T17:47:55.928Z,23.58
2022-11-19T17:51:38.892Z,21.83
2022-11-19T17:55:22.406Z,18.83
2022-11-19T17:59:04.105Z,22.23
2022-11-19T18:02:48.668Z,22.23
2022-11-19T18:06:30.377Z,14.85
2022-11-19T18:10:13.071Z,15.02
2022-11-19T18:13:57.232Z,14.48
2022-11-19T18:17:38.915Z,11.23
2022-11-19T18:21:21.505Z,15.55
2022-11-19T18:25:07.117Z,15.57
2022-11-19T18:28:49.346Z,14.60
2022-11-19T18:32:31.277Z,16.35
2022-11-19T18:36:13.025Z,21.58
2022-11-19T18:39:54.803Z,23.48
2022-11-19T18:43:55.175Z,22.02
2022-11-19T18:47:36.846Z,17.23
2022-11-19T18:51:18.870Z,27.23
2022-11-19T18:55:00.585Z,19.55
2022-11-19T18:58:42.349Z,12.57
2022-11-19T19:02:25.332Z,13.88
2022-11-19T19:06:07.749Z,13.30
2022-11-19T19:09:49.453Z,13.63
2022-11-19T19:13:32.305Z,13.05
2022-11-19T19:17:14.586Z,10.27
2022-11-19T19:20:56.254Z,13.50
2022-11-19T19:24:40.135Z,11.27
2022-11-19T19:28:21.799Z,7.57
2022-11-19T19:32:04.746Z,14.10
2022-11-19T19:35:46.785Z,20.17
2022-11-19T19:39:28.554Z,14.30
2022-11-19T19:43:10.371Z,14.30
2022-11-19T19:46:52.099Z,12.57
2022-11-19T19:50:33.779Z,14.00
2022-11-19T19:54:15.743Z,14.40
2022-11-19T19:57:57.425Z,12.25
2022-11-19T20:01:39.259Z,13.60
2022-11-19T20:05:21.074Z,13.18
2022-11-19T20:09:08.213Z,13.43
2022-11-19T20:13:09.842Z,12.02
2022-11-19T20:16:51.854Z,15.00
2022-11-19T20:20:33.526Z,20.25
2022-11-19T20:24:17.281Z,13.95
2022-11-19T20:31:40.945Z,13.35
2022-11-19T20:35:23.733Z,11.50
2022-11-19T20:39:06.384Z,19.63
2022-11-19T20:43:06.994Z,19.25
2022-11-19T20:47:04.542Z,14.20
2022-11-19T20:50:46.214Z,11.82
2022-11-19T20:54:28.284Z,11.32
2022-11-19T20:58:09.951Z,10.68
2022-11-19T21:01:52.052Z,8.35
2022-11-19T21:05:33.926Z,12.45
2022-11-19T21:09:16.016Z,10.02
2022-11-19T21:13:01.971Z,14.00
2022-11-19T21:16:43.734Z,7.18
2022-11-19T21:20:25.430Z,8.45
2022-11-19T21:24:07.699Z,9.75
2022-11-19T21:27:49.372Z,10.05
2022-11-19T21:31:45.801Z,13.07
2022-11-19T21:35:27.512Z,9.77
2022-11-19T21:39:09.360Z,7.63
2022-11-19T21:42:51.396Z,13.80
2022-11-19T21:46:33.549Z,9.85
2022-11-19T21:50:16.908Z,10.70
2022-11-19T21:53:58.932Z,10.48
2022-11-19T21:57:40.626Z,10.55
2022-11-19T22:01:22.501Z,7.93
2022-11-19T22:05:04.423Z,8.75
2022-11-19T22:08:46.124Z,8.13
2022-11-19T22:12:28.140Z,9.02
2022-11-19T22:16:09.896Z,7.63
2022-11-19T22:19:51.589Z,7.45
2022-11-19T22:23:35.359Z,8.77
2022-11-19T22:30:59.529Z,6.30
2022-11-19T22:34:41.440Z,6.20
2022-11-19T22:38:23.141Z,7.65
2022-11-19T22:43:01.307Z,7.35
2022-11-19T22:46:43.046Z,7.40
2022-11-19T22:50:25.480Z,10.02
2022-11-19T22:54:11.649Z,8.00
2022-11-19T22:57:56.423Z,9.68
2022-11-19T23:01:40.887Z,9.07
2022-11-19T23:05:22.589Z,8.60
2022-11-19T23:09:05.065Z,7.75
2022-11-19T23:13:06.602Z,7.80
2022-11-19T23:16:48.375Z,6.97
2022-11-19T23:20:30.926Z,9.80
2022-11-19T23:24:14.855Z,12.82
2022-11-19T23:27:59.073Z,9.65
2022-11-19T23:32:01.732Z,11.65
2022-11-19T23:35:43.416Z,8.68
2022-11-19T23:39:25.112Z,6.22
2022-11-19T23:43:27.607Z,8.65
2022-11-19T23:47:09.659Z,9.70
2022-11-19T23:50:51.370Z,10.75
2022-11-19T23:54:53.541Z,5.25
2022-11-19T23:58:35.445Z,5.70
